createdAt,value
2018-09-14T00:00:29.346Z,1016.47
2018-09-14T00:01:29.339Z,1016.45
2018-09-14T00:02:29.339Z,1016.48
2018-09-14T00:03:29.333Z,1016.48
2018-09-14T00:04:29.331Z,1016.46
2018-09-14T00:05:29.328Z,1016.49
2018-09-14T00:06:29.329Z,1016.42
2018-09-14T00:07:29.326Z,1016.43
2018-09-14T00:08:29.321Z,1016.35
2018-09-14T00:09:29.321Z,1016.36
2018-09-14T00:10:29.319Z,1016.36
2018-09-14T00:11:29.315Z,1016.37
2018-09-14T00:12:29.314Z,1016.35
2018-09-14T00:13:29.310Z,1016.31
2018-09-14T00:14:29.310Z,1016.29
2018-09-14T00:15:29.306Z,1016.31
2018-09-14T00:16:29.308Z,1016.33
2018-09-14T00:17:29.302Z,1016.29
2018-09-14T00:18:29.302Z,1016.34
2018-09-14T00:19:29.300Z,1016.31
2018-09-14T00:20:29.297Z,1016.28
2018-09-14T00:21:29.298Z,1016.31
2018-09-14T00:22:29.294Z,1016.32
2018-09-14T00:23:29.292Z,1016.30
2018-09-14T00:24:29.292Z,1016.29
2018-09-14T00:25:29.287Z,1016.31
2018-09-14T00:26:29.281Z,1016.28
2018-09-14T00:27:29.284Z,1016.30
2018-09-14T00:28:29.281Z,1016.24
2018-09-14T00:29:29.279Z,1016.23
2018-09-14T00:30:29.280Z,1016.24
2018-09-14T00:31:29.278Z,1016.24
2018-09-14T00:32:29.271Z,1016.26
2018-09-14T00:33:29.270Z,1016.25
2018-09-14T00:34:29.269Z,1016.22
2018-09-14T00:35:29.265Z,1016.24
2018-09-14T00:36:29.266Z,1016.24
2018-09-14T00:37:29.261Z,1016.21
2018-09-14T00:38:29.263Z,1016.20
2018-09-14T00:39:29.259Z,1016.25
2018-09-14T00:40:29.259Z,1016.23
2018-09-14T00:41:29.256Z,1016.25
2018-09-14T00:42:29.253Z,1016.24
2018-09-14T00:43:29.250Z,1016.24
2018-09-14T00:44:29.248Z,1016.26
2018-09-14T00:45:29.245Z,1016.28
2018-09-14T00:46:29.248Z,1016.24
2018-09-14T00:47:29.241Z,1016.26
2018-09-14T00:48:29.239Z,1016.25
2018-09-14T00:49:29.242Z,1016.26
2018-09-14T00:50:29.236Z,1016.25
2018-09-14T00:51:29.235Z,1016.24
2018-09-14T00:52:29.234Z,1016.24
2018-09-14T00:53:29.232Z,1016.23
2018-09-14T00:54:29.229Z,1016.21
2018-09-14T00:55:29.228Z,1016.22
2018-09-14T00:56:29.230Z,1016.21
2018-09-14T00:57:29.224Z,1016.25
2018-09-14T00:58:29.222Z,1016.23
2018-09-14T00:59:29.220Z,1016.25
2018-09-14T01:00:29.217Z,1016.25
2018-09-14T01:01:29.216Z,1016.22
2018-09-14T01:02:29.217Z,1016.24
2018-09-14T01:03:29.212Z,1016.23
2018-09-14T01:04:29.209Z,1016.25
2018-09-14T01:05:29.206Z,1016.27
2018-09-14T01:06:29.206Z,1016.26
2018-09-14T01:07:29.202Z,1016.29
2018-09-14T01:08:29.199Z,1016.27
2018-09-14T01:09:29.200Z,1016.27
2018-09-14T01:10:29.198Z,1016.26
2018-09-14T01:11:29.198Z,1016.28
2018-09-14T01:12:29.189Z,1016.28
2018-09-14T01:13:29.192Z,1016.27
2018-09-14T01:14:29.192Z,1016.26
2018-09-14T01:15:29.186Z,1016.25
2018-09-14T01:16:29.189Z,1016.24
2018-09-14T01:17:29.185Z,1016.23
2018-09-14T01:18:29.179Z,1016.19
2018-09-14T01:19:29.182Z,1016.23
2018-09-14T01:20:29.180Z,1016.24
2018-09-14T01:21:29.174Z,1016.23
2018-09-14T01:22:29.172Z,1016.24
2018-09-14T01:23:29.173Z,1016.24
2018-09-14T01:24:29.167Z,1016.24
2018-09-14T01:25:29.162Z,1016.25
2018-09-14T01:26:29.164Z,1016.27
2018-09-14T01:27:29.163Z,1016.26
2018-09-14T01:28:29.158Z,1016.25
2018-09-14T01:29:29.157Z,1016.26
2018-09-14T01:30:29.153Z,1016.27
2018-09-14T01:31:29.862Z,1016.24
2018-09-14T01:32:29.155Z,1016.28
2018-09-14T01:33:29.147Z,1016.28
2018-09-14T01:34:29.145Z,1016.29
2018-09-14T01:35:29.143Z,1016.27
2018-09-14T01:36:29.142Z,1016.30
2018-09-14T01:37:29.140Z,1016.29
2018-09-14T01:38:29.138Z,1016.26
2018-09-14T01:39:29.134Z,1016.27
2018-09-14T01:40:29.131Z,1016.25
2018-09-14T01:41:29.129Z,1016.27
2018-09-14T01:42:29.126Z,1016.23
2018-09-14T01:43:29.124Z,1016.25
2018-09-14T01:44:29.123Z,1016.22
2018-09-14T01:45:29.123Z,1016.25
2018-09-14T01:46:29.119Z,1016.23
2018-09-14T01:47:29.116Z,1016.22
2018-09-14T01:48:29.114Z,1016.25
2018-09-14T01:49:29.110Z,1016.21
2018-09-14T01:50:29.110Z,1016.20
2018-09-14T01:51:29.106Z,1016.22
2018-09-14T01:52:29.104Z,1016.20
2018-09-14T01:53:29.102Z,1016.23
2018-09-14T01:54:29.101Z,1016.20
2018-09-14T01:55:29.098Z,1016.21
2018-09-14T01:56:29.097Z,1016.22
2018-09-14T01:57:29.094Z,1016.21
2018-09-14T01:58:29.092Z,1016.20
2018-09-14T01:59:29.089Z,1016.19
2018-09-14T02:00:29.088Z,1016.18
2018-09-14T02:01:29.086Z,1016.16
2018-09-14T02:02:29.082Z,1016.19
2018-09-14T02:03:29.116Z,1016.15
2018-09-14T02:04:29.080Z,1016.16
2018-09-14T02:05:29.078Z,1016.18
2018-09-14T02:06:29.080Z,1016.16
2018-09-14T02:07:29.072Z,1016.12
2018-09-14T02:08:29.070Z,1016.10
2018-09-14T02:09:29.068Z,1016.14
2018-09-14T02:10:29.066Z,1016.14
2018-09-14T02:11:29.061Z,1016.14
2018-09-14T02:12:29.063Z,1016.15
2018-09-14T02:13:29.060Z,1016.13
2018-09-14T02:14:29.056Z,1016.14
2018-09-14T02:15:29.056Z,1016.11
2018-09-14T02:16:29.055Z,1016.13
2018-09-14T02:17:29.052Z,1016.12
2018-09-14T02:18:29.051Z,1016.08
2018-09-14T02:19:29.048Z,1016.09
2018-09-14T02:20:29.045Z,1016.06
2018-09-14T02:21:29.045Z,1016.06
2018-09-14T02:22:29.040Z,1016.06
2018-09-14T02:23:29.038Z,1016.08
2018-09-14T02:24:29.038Z,1016.08
2018-09-14T02:25:29.065Z,1016.08
2018-09-14T02:26:29.032Z,1016.08
2018-09-14T02:27:29.034Z,1016.14
2018-09-14T02:28:29.030Z,1016.12
2018-09-14T02:29:29.031Z,1016.13
2018-09-14T02:30:29.024Z,1016.13
2018-09-14T02:31:29.020Z,1016.17
2018-09-14T02:32:29.019Z,1016.16
2018-09-14T02:33:29.022Z,1016.20
2018-09-14T02:34:29.016Z,1016.18
2018-09-14T02:35:29.010Z,1016.19
2018-09-14T02:36:29.010Z,1016.19
2018-09-14T02:37:29.012Z,1016.21
2018-09-14T02:38:29.013Z,1016.19
2018-09-14T02:39:29.008Z,1016.20
2018-09-14T02:40:29.000Z,1016.16
2018-09-14T02:41:28.999Z,1016.15
2018-09-14T02:42:28.999Z,1016.12
2018-09-14T02:43:28.993Z,1016.16
2018-09-14T02:44:28.997Z,1016.07
2018-09-14T02:45:28.990Z,1016.09
2018-09-14T02:46:28.992Z,1016.08
2018-09-14T02:47:29.001Z,1016.06
2018-09-14T02:48:28.983Z,1016.06
2018-09-14T02:49:28.979Z,1016.04
2018-09-14T02:50:28.978Z,1016.04
2018-09-14T02:51:28.974Z,1015.99
2018-09-14T02:52:28.975Z,1015.98
2018-09-14T02:53:28.966Z,1015.97
2018-09-14T02:54:28.968Z,1016.00
2018-09-14T02:55:28.970Z,1015.99
2018-09-14T02:56:28.964Z,1015.99
2018-09-14T02:57:28.964Z,1016.00
2018-09-14T02:58:28.961Z,1016.01
2018-09-14T02:59:28.956Z,1015.99
2018-09-14T03:00:28.958Z,1015.98
2018-09-14T03:01:28.954Z,1015.96
2018-09-14T03:02:28.952Z,1015.97
2018-09-14T03:03:28.950Z,1015.98
2018-09-14T03:04:28.950Z,1015.99
2018-09-14T03:05:28.945Z,1015.93
2018-09-14T03:06:28.948Z,1015.96
2018-09-14T03:07:28.940Z,1015.93
2018-09-14T03:08:28.936Z,1015.96
2018-09-14T03:09:28.937Z,1015.94
2018-09-14T03:10:28.935Z,1015.92
2018-09-14T03:11:28.932Z,1015.90
2018-09-14T03:12:28.933Z,1015.90
2018-09-14T03:13:28.937Z,1015.91
2018-09-14T03:14:28.926Z,1015.92
2018-09-14T03:15:28.928Z,1015.89
2018-09-14T03:16:28.920Z,1015.89
2018-09-14T03:17:28.922Z,1015.86
2018-09-14T03:18:28.921Z,1015.85
2018-09-14T03:19:28.915Z,1015.83
2018-09-14T03:20:28.913Z,1015.86
2018-09-14T03:21:28.912Z,1015.89
2018-09-14T03:22:28.910Z,1015.87
2018-09-14T03:23:28.911Z,1015.88
2018-09-14T03:24:28.909Z,1015.89
2018-09-14T03:25:28.905Z,1015.90
2018-09-14T03:26:28.903Z,1015.90
2018-09-14T03:27:28.897Z,1015.90
2018-09-14T03:28:28.896Z,1015.89
2018-09-14T03:29:28.891Z,1015.90
2018-09-14T03:30:28.893Z,1015.94
2018-09-14T03:31:28.891Z,1015.94
2018-09-14T03:32:28.892Z,1015.92
2018-09-14T03:33:28.894Z,1015.93
2018-09-14T03:34:28.884Z,1015.91
2018-09-14T03:35:28.881Z,1015.93
2018-09-14T03:36:28.884Z,1015.95
2018-09-14T03:37:28.878Z,1015.94
2018-09-14T03:38:28.877Z,1016.00
2018-09-14T03:39:28.873Z,1015.99
2018-09-14T03:40:28.869Z,1015.98
2018-09-14T03:41:28.869Z,1016.01
2018-09-14T03:42:28.869Z,1016.00
2018-09-14T03:43:28.863Z,1016.01
2018-09-14T03:44:28.864Z,1016.01
2018-09-14T03:45:28.863Z,1015.98
2018-09-14T03:46:28.862Z,1015.98
2018-09-14T03:47:28.871Z,1016.01
2018-09-14T03:48:28.856Z,1016.00
2018-09-14T03:49:28.854Z,1016.01
2018-09-14T03:50:28.855Z,1016.01
2018-09-14T03:51:28.849Z,1016.04
2018-09-14T03:52:28.853Z,1016.07
2018-09-14T03:53:28.849Z,1016.08
2018-09-14T03:54:28.844Z,1016.04
2018-09-14T03:55:28.842Z,1016.06
2018-09-14T03:56:28.865Z,1016.08
2018-09-14T03:57:28.840Z,1016.05
2018-09-14T03:58:28.836Z,1016.04
2018-09-14T03:59:28.833Z,1016.07
2018-09-14T04:00:28.830Z,1016.07
2018-09-14T04:01:28.828Z,1016.09
2018-09-14T04:02:28.832Z,1016.09
2018-09-14T04:03:28.826Z,1016.09
2018-09-14T04:04:28.830Z,1016.07
2018-09-14T04:05:28.822Z,1016.07
2018-09-14T04:06:28.884Z,1016.07
2018-09-14T04:07:28.817Z,1016.07
2018-09-14T04:08:28.817Z,1016.07
2018-09-14T04:09:28.814Z,1016.05
2018-09-14T04:10:28.815Z,1016.08
2018-09-14T04:11:28.808Z,1016.08
2018-09-14T04:12:28.810Z,1016.05
2018-09-14T04:13:28.806Z,1016.05
2018-09-14T04:14:28.805Z,1016.09
2018-09-14T04:15:28.799Z,1016.07
2018-09-14T04:16:28.799Z,1016.10
2018-09-14T04:17:28.798Z,1016.09
2018-09-14T04:18:28.797Z,1016.10
2018-09-14T04:19:28.796Z,1016.12
2018-09-14T04:20:28.791Z,1016.11
2018-09-14T04:21:28.791Z,1016.10
2018-09-14T04:22:28.787Z,1016.10
2018-09-14T04:23:28.822Z,1016.10
2018-09-14T04:24:28.784Z,1016.08
2018-09-14T04:25:28.782Z,1016.07
2018-09-14T04:26:28.783Z,1016.06
2018-09-14T04:27:28.774Z,1016.06
2018-09-14T04:28:28.775Z,1016.09
2018-09-14T04:29:28.773Z,1016.04
2018-09-14T04:30:28.770Z,1016.05
2018-09-14T04:31:28.769Z,1016.05
2018-09-14T04:32:28.766Z,1016.09
2018-09-14T04:33:28.765Z,1016.08
2018-09-14T04:34:28.764Z,1016.11
2018-09-14T04:35:28.762Z,1016.09
2018-09-14T04:36:28.759Z,1016.11
2018-09-14T04:37:28.758Z,1016.12
2018-09-14T04:38:28.802Z,1016.11
2018-09-14T04:39:28.751Z,1016.09
2018-09-14T04:40:28.751Z,1016.09
2018-09-14T04:41:28.749Z,1016.10
2018-09-14T04:42:28.747Z,1016.09
2018-09-14T04:43:28.746Z,1016.10
2018-09-14T04:44:28.743Z,1016.07
2018-09-14T04:45:28.742Z,1016.09
2018-09-14T04:46:28.742Z,1016.08
2018-09-14T04:47:28.738Z,1016.05
2018-09-14T04:48:28.741Z,1016.07
2018-09-14T04:49:28.735Z,1016.10
2018-09-14T04:50:28.732Z,1016.08
2018-09-14T04:51:28.915Z,1016.04
2018-09-14T04:52:28.729Z,1016.09
2018-09-14T04:53:28.730Z,1016.05
2018-09-14T04:54:28.723Z,1016.04
2018-09-14T04:55:28.725Z,1016.08
2018-09-14T04:56:28.720Z,1016.05
2018-09-14T04:57:28.771Z,1016.09
2018-09-14T04:58:28.714Z,1016.12
2018-09-14T04:59:28.715Z,1016.11
2018-09-14T05:00:28.712Z,1016.14
2018-09-14T05:01:28.711Z,1016.08
2018-09-14T05:02:28.707Z,1016.13
2018-09-14T05:03:28.706Z,1016.16
2018-09-14T05:04:28.702Z,1016.14
2018-09-14T05:05:28.699Z,1016.14
2018-09-14T05:06:28.695Z,1016.15
2018-09-14T05:07:28.750Z,1016.16
2018-09-14T05:08:28.693Z,1016.18
2018-09-14T05:09:28.690Z,1016.17
2018-09-14T05:10:28.688Z,1016.18
2018-09-14T05:11:28.686Z,1016.18
2018-09-14T05:12:28.685Z,1016.19
2018-09-14T05:13:28.682Z,1016.21
2018-09-14T05:14:28.681Z,1016.23
2018-09-14T05:15:29.426Z,1016.22
2018-09-14T05:16:28.675Z,1016.23
2018-09-14T05:17:28.675Z,1016.24
2018-09-14T05:18:28.673Z,1016.24
2018-09-14T05:19:28.669Z,1016.23
2018-09-14T05:20:28.667Z,1016.25
2018-09-14T05:21:28.666Z,1016.23
2018-09-14T05:22:28.661Z,1016.22
2018-09-14T05:23:28.663Z,1016.23
2018-09-14T05:24:28.709Z,1016.27
2018-09-14T05:25:28.657Z,1016.29
2018-09-14T05:26:28.667Z,1016.25
2018-09-14T05:27:28.654Z,1016.26
2018-09-14T05:28:28.653Z,1016.27
2018-09-14T05:29:28.652Z,1016.29
2018-09-14T05:30:28.650Z,1016.32
2018-09-14T05:31:28.645Z,1016.30
2018-09-14T05:32:28.643Z,1016.36
2018-09-14T05:33:28.645Z,1016.34
2018-09-14T05:34:28.640Z,1016.32
2018-09-14T05:35:28.642Z,1016.34
2018-09-14T05:36:28.640Z,1016.35
2018-09-14T05:37:28.635Z,1016.34
2018-09-14T05:38:28.680Z,1016.35
2018-09-14T05:39:28.629Z,1016.34
2018-09-14T05:40:28.627Z,1016.35
2018-09-14T05:41:28.624Z,1016.35
2018-09-14T05:42:28.630Z,1016.35
2018-09-14T05:43:28.623Z,1016.36
2018-09-14T05:44:28.621Z,1016.36
2018-09-14T05:45:28.620Z,1016.34
2018-09-14T05:46:28.623Z,1016.35
2018-09-14T05:47:28.615Z,1016.33
2018-09-14T05:48:28.619Z,1016.35
2018-09-14T05:49:28.606Z,1016.34
2018-09-14T05:50:28.607Z,1016.35
2018-09-14T05:51:28.608Z,1016.34
2018-09-14T05:52:28.606Z,1016.32
2018-09-14T05:53:28.604Z,1016.29
2018-09-14T05:54:28.612Z,1016.29
2018-09-14T05:55:28.607Z,1016.33
2018-09-14T05:56:28.598Z,1016.36
2018-09-14T05:57:28.634Z,1016.38
2018-09-14T05:58:28.595Z,1016.40
2018-09-14T05:59:28.597Z,1016.39
2018-09-14T06:00:28.590Z,1016.39
2018-09-14T06:01:28.594Z,1016.41
2018-09-14T06:02:28.593Z,1016.41
2018-09-14T06:03:28.587Z,1016.41
2018-09-14T06:04:28.590Z,1016.45
2018-09-14T06:05:28.584Z,1016.42
2018-09-14T06:06:28.615Z,1016.43
2018-09-14T06:07:28.581Z,1016.45
2018-09-14T06:08:28.579Z,1016.47
2018-09-14T06:09:28.576Z,1016.47
2018-09-14T06:10:28.575Z,1016.55
2018-09-14T06:11:28.574Z,1016.56
2018-09-14T06:12:28.578Z,1016.61
2018-09-14T06:13:28.571Z,1016.55
2018-09-14T06:14:28.572Z,1016.60
2018-09-14T06:15:28.566Z,1016.64
2018-09-14T06:16:28.565Z,1016.64
2018-09-14T06:17:28.566Z,1016.63
2018-09-14T06:18:28.562Z,1016.65
2018-09-14T06:19:28.561Z,1016.66
2018-09-14T06:20:28.560Z,1016.65
2018-09-14T06:21:28.557Z,1016.66
2018-09-14T06:22:28.578Z,1016.67
2018-09-14T06:23:28.555Z,1016.68
2018-09-14T06:24:28.553Z,1016.66
2018-09-14T06:25:28.551Z,1016.68
2018-09-14T06:26:28.550Z,1016.70
2018-09-14T06:27:28.548Z,1016.70
2018-09-14T06:28:28.547Z,1016.67
2018-09-14T06:29:28.546Z,1016.71
2018-09-14T06:30:28.777Z,1016.70
2018-09-14T06:31:28.546Z,1016.70
2018-09-14T06:32:28.542Z,1016.72
2018-09-14T06:33:28.539Z,1016.72
2018-09-14T06:34:28.537Z,1016.72
2018-09-14T06:35:28.537Z,1016.66
2018-09-14T06:36:28.536Z,1016.66
2018-09-14T06:37:28.539Z,1016.64
2018-09-14T06:38:28.534Z,1016.67
2018-09-14T06:39:28.531Z,1016.68
2018-09-14T06:40:28.530Z,1016.69
2018-09-14T06:41:28.528Z,1016.70
2018-09-14T06:42:28.533Z,1016.68
2018-09-14T06:43:28.528Z,1016.71
2018-09-14T06:44:28.527Z,1016.71
2018-09-14T06:45:28.573Z,1016.73
2018-09-14T06:46:28.525Z,1016.71
2018-09-14T06:47:28.523Z,1016.74
2018-09-14T06:48:29.029Z,1016.75
2018-09-14T06:49:28.523Z,1016.74
2018-09-14T06:50:28.517Z,1016.71
2018-09-14T06:51:28.523Z,1016.72
2018-09-14T06:52:28.518Z,1016.75
2018-09-14T06:53:28.592Z,1016.77
2018-09-14T06:54:28.519Z,1016.79
2018-09-14T06:55:28.516Z,1016.77
2018-09-14T06:56:28.516Z,1016.80
2018-09-14T06:57:28.517Z,1016.79
2018-09-14T06:58:28.514Z,1016.80
2018-09-14T06:59:28.512Z,1016.81
2018-09-14T07:00:28.585Z,1016.77
2018-09-14T07:01:28.509Z,1016.83
2018-09-14T07:02:28.513Z,1016.78
2018-09-14T07:03:28.510Z,1016.81
2018-09-14T07:04:28.514Z,1016.79
2018-09-14T07:05:28.508Z,1016.80
2018-09-14T07:06:28.580Z,1016.82
2018-09-14T07:07:28.506Z,1016.82
2018-09-14T07:08:28.507Z,1016.82
2018-09-14T07:09:28.506Z,1016.82
2018-09-14T07:10:28.504Z,1016.81
2018-09-14T07:11:28.527Z,1016.78
2018-09-14T07:12:28.500Z,1016.77
2018-09-14T07:13:28.502Z,1016.78
2018-09-14T07:14:28.506Z,1016.80
2018-09-14T07:15:28.500Z,1016.80
2018-09-14T07:16:28.498Z,1016.79
2018-09-14T07:17:28.500Z,1016.81
2018-09-14T07:18:28.497Z,1016.81
2018-09-14T07:19:28.495Z,1016.81
2018-09-14T07:20:28.496Z,1016.83
2018-09-14T07:21:28.496Z,1016.86
2018-09-14T07:22:28.494Z,1016.82
2018-09-14T07:23:28.493Z,1016.86
2018-09-14T07:24:28.592Z,1016.85
2018-09-14T07:25:28.492Z,1016.85
2018-09-14T07:26:28.492Z,1016.86
2018-09-14T07:27:28.503Z,1016.84
2018-09-14T07:28:28.499Z,1016.85
2018-09-14T07:29:28.499Z,1016.88
2018-09-14T07:30:28.497Z,1016.88
2018-09-14T07:31:28.500Z,1016.85
2018-09-14T07:32:28.499Z,1016.88
2018-09-14T07:33:28.488Z,1016.80
2018-09-14T07:34:28.485Z,1016.84
2018-09-14T07:35:28.489Z,1016.85
2018-09-14T07:36:28.527Z,1016.87
2018-09-14T07:37:28.490Z,1016.88
2018-09-14T07:38:28.483Z,1016.87
2018-09-14T07:39:28.486Z,1016.88
2018-09-14T07:40:28.481Z,1016.91
2018-09-14T07:41:28.481Z,1016.88
2018-09-14T07:42:28.496Z,1016.94
2018-09-14T07:43:28.479Z,1016.89
2018-09-14T07:44:28.480Z,1016.92
2018-09-14T07:45:28.481Z,1016.91
2018-09-14T07:46:28.480Z,1016.96
2018-09-14T07:47:28.477Z,1016.93
2018-09-14T07:48:28.531Z,1016.93
2018-09-14T07:49:28.476Z,1016.92
2018-09-14T07:50:28.478Z,1016.98
2018-09-14T07:51:28.474Z,1016.99
2018-09-14T07:52:28.476Z,1016.98
2018-09-14T07:53:28.475Z,1016.96
2018-09-14T07:54:28.476Z,1016.98
2018-09-14T07:55:28.489Z,1017.01
2018-09-14T07:56:28.478Z,1017.02
2018-09-14T07:57:28.475Z,1017.04
2018-09-14T07:58:28.478Z,1017.02
2018-09-14T07:59:28.473Z,1017.02
2018-09-14T08:00:28.473Z,1016.99
2018-09-14T08:01:28.475Z,1017.00
2018-09-14T08:02:28.476Z,1017.01
2018-09-14T08:03:28.472Z,1016.99
2018-09-14T08:04:28.469Z,1017.01
2018-09-14T08:05:28.471Z,1017.01
2018-09-14T08:06:28.472Z,1016.99
2018-09-14T08:07:28.473Z,1017.03
2018-09-14T08:08:28.473Z,1017.07
2018-09-14T08:09:28.473Z,1017.07
2018-09-14T08:10:28.474Z,1017.07
2018-09-14T08:11:28.524Z,1017.10
2018-09-14T08:12:28.474Z,1017.07
2018-09-14T08:13:28.486Z,1017.09
2018-09-14T08:14:28.480Z,1017.12
2018-09-14T08:15:28.473Z,1017.08
2018-09-14T08:16:28.473Z,1017.09
2018-09-14T08:17:28.471Z,1017.10
2018-09-14T08:18:28.474Z,1017.12
2018-09-14T08:19:28.481Z,1017.15
2018-09-14T08:20:28.472Z,1017.14
2018-09-14T08:21:28.544Z,1017.12
2018-09-14T08:22:28.475Z,1017.17
2018-09-14T08:23:28.483Z,1017.16
2018-09-14T08:24:28.478Z,1017.13
2018-09-14T08:25:28.477Z,1017.13
2018-09-14T08:26:28.477Z,1017.13
2018-09-14T08:27:28.478Z,1017.13
2018-09-14T08:28:28.477Z,1017.17
2018-09-14T08:29:28.478Z,1017.12
2018-09-14T08:30:28.480Z,1017.14
2018-09-14T08:31:28.482Z,1017.15
2018-09-14T08:32:28.515Z,1017.18
2018-09-14T08:33:28.481Z,1017.17
2018-09-14T08:34:28.481Z,1017.12
2018-09-14T08:35:28.478Z,1017.16
2018-09-14T08:36:28.483Z,1017.12
2018-09-14T08:37:28.481Z,1017.16
2018-09-14T08:38:28.484Z,1017.14
2018-09-14T08:39:28.488Z,1017.16
2018-09-14T08:40:28.486Z,1017.16
2018-09-14T08:41:28.494Z,1017.16
2018-09-14T08:42:28.487Z,1017.21
2018-09-14T08:43:28.487Z,1017.17
2018-09-14T08:44:28.488Z,1017.17
2018-09-14T08:45:28.490Z,1017.23
2018-09-14T08:46:28.497Z,1017.18
2018-09-14T08:47:28.491Z,1017.20
2018-09-14T08:48:28.489Z,1017.16
2018-09-14T08:49:28.490Z,1017.18
2018-09-14T08:50:28.490Z,1017.14
2018-09-14T08:51:28.496Z,1017.15
2018-09-14T08:52:28.493Z,1017.17
2018-09-14T08:53:28.503Z,1017.16
2018-09-14T08:54:28.494Z,1017.19
2018-09-14T08:55:28.498Z,1017.18
2018-09-14T08:56:28.500Z,1017.18
2018-09-14T08:57:28.496Z,1017.16
2018-09-14T08:58:28.497Z,1017.14
2018-09-14T08:59:28.498Z,1017.12
2018-09-14T09:00:28.503Z,1017.14
2018-09-14T09:01:28.499Z,1017.14
2018-09-14T09:02:28.502Z,1017.16
2018-09-14T09:03:28.500Z,1017.14
2018-09-14T09:04:28.502Z,1017.13
2018-09-14T09:05:28.508Z,1017.17
2018-09-14T09:06:28.504Z,1017.13
2018-09-14T09:07:28.499Z,1017.18
2018-09-14T09:08:28.502Z,1017.19
2018-09-14T09:09:28.505Z,1017.15
2018-09-14T09:10:28.505Z,1017.16
2018-09-14T09:11:28.533Z,1017.20
2018-09-14T09:12:28.505Z,1017.17
2018-09-14T09:13:28.508Z,1017.19
2018-09-14T09:14:28.516Z,1017.19
2018-09-14T09:15:28.506Z,1017.21
2018-09-14T09:16:28.509Z,1017.24
2018-09-14T09:17:28.509Z,1017.20
2018-09-14T09:18:28.514Z,1017.22
2018-09-14T09:19:28.540Z,1017.21
2018-09-14T09:20:28.511Z,1017.18
2018-09-14T09:21:28.513Z,1017.20
2018-09-14T09:22:28.512Z,1017.22
2018-09-14T09:23:28.538Z,1017.22
2018-09-14T09:24:28.517Z,1017.22
2018-09-14T09:25:28.517Z,1017.16
2018-09-14T09:26:28.539Z,1017.15
2018-09-14T09:27:28.518Z,1017.13
2018-09-14T09:28:28.523Z,1017.15
2018-09-14T09:29:28.544Z,1017.16
2018-09-14T09:30:28.518Z,1017.19
2018-09-14T09:31:28.517Z,1017.14
2018-09-14T09:32:28.522Z,1017.17
2018-09-14T09:33:28.522Z,1017.16
2018-09-14T09:34:28.521Z,1017.14
2018-09-14T09:35:28.526Z,1017.15
2018-09-14T09:36:28.523Z,1017.16
2018-09-14T09:37:28.521Z,1017.12
2018-09-14T09:38:28.526Z,1017.14
2018-09-14T09:39:28.524Z,1017.11
2018-09-14T09:40:28.527Z,1017.11
2018-09-14T09:41:28.528Z,1017.10
2018-09-14T09:42:28.533Z,1017.09
2018-09-14T09:43:28.626Z,1017.10
2018-09-14T09:44:28.531Z,1017.10
2018-09-14T09:45:28.533Z,1017.10
2018-09-14T09:46:28.532Z,1017.06
2018-09-14T09:47:28.537Z,1017.10
2018-09-14T09:48:28.532Z,1017.04
2018-09-14T09:49:28.531Z,1017.08
2018-09-14T09:50:28.534Z,1017.04
2018-09-14T09:51:28.537Z,1017.03
2018-09-14T09:52:28.538Z,1017.02
2018-09-14T09:53:28.540Z,1017.02
2018-09-14T09:54:28.540Z,1017.02
2018-09-14T09:55:28.542Z,1016.98
2018-09-14T09:56:28.582Z,1016.98
2018-09-14T09:57:28.545Z,1017.01
2018-09-14T09:58:28.553Z,1017.01
2018-09-14T09:59:28.547Z,1017.02
2018-09-14T10:00:28.549Z,1017.02
2018-09-14T10:01:28.550Z,1017.00
2018-09-14T10:02:28.555Z,1017.03
2018-09-14T10:03:28.556Z,1017.04
2018-09-14T10:04:28.556Z,1017.06
2018-09-14T10:05:28.557Z,1017.02
2018-09-14T10:06:28.569Z,1017.00
2018-09-14T10:07:28.563Z,1017.00
2018-09-14T10:08:28.563Z,1016.99
2018-09-14T10:09:28.564Z,1016.98
2018-09-14T10:10:28.565Z,1016.97
2018-09-14T10:11:28.565Z,1016.96
2018-09-14T10:12:28.566Z,1016.96
2018-09-14T10:13:28.572Z,1016.96
2018-09-14T10:14:28.576Z,1016.94
2018-09-14T10:15:28.572Z,1016.93
2018-09-14T10:16:28.577Z,1016.95
2018-09-14T10:17:28.576Z,1016.93
2018-09-14T10:18:28.685Z,1016.91
2018-09-14T10:19:28.581Z,1016.91
2018-09-14T10:20:28.606Z,1016.94
2018-09-14T10:21:28.665Z,1016.92
2018-09-14T10:22:28.627Z,1016.91
2018-09-14T10:23:28.588Z,1016.90
2018-09-14T10:24:28.591Z,1016.88
2018-09-14T10:25:28.595Z,1016.91
2018-09-14T10:26:28.642Z,1016.93
2018-09-14T10:27:28.595Z,1016.91
2018-09-14T10:28:29.522Z,1016.93
2018-09-14T10:29:28.648Z,1016.94
2018-09-14T10:30:28.653Z,1016.93
2018-09-14T10:31:28.603Z,1016.93
2018-09-14T10:32:29.524Z,1016.92
2018-09-14T10:33:28.607Z,1016.94
2018-09-14T10:34:28.606Z,1016.90
2018-09-14T10:35:28.609Z,1016.90
2018-09-14T10:36:28.613Z,1016.94
2018-09-14T10:37:28.618Z,1016.94
2018-09-14T10:38:28.626Z,1016.93
2018-09-14T10:39:28.619Z,1016.92
2018-09-14T10:40:28.639Z,1016.94
2018-09-14T10:41:28.622Z,1016.90
2018-09-14T10:42:28.623Z,1016.89
2018-09-14T10:43:28.626Z,1016.90
2018-09-14T10:44:28.628Z,1016.91
2018-09-14T10:45:28.629Z,1016.88
2018-09-14T10:46:28.671Z,1016.87
2018-09-14T10:47:28.639Z,1016.89
2018-09-14T10:48:29.604Z,1016.90
2018-09-14T10:49:28.641Z,1016.88
2018-09-14T10:50:28.640Z,1016.88
2018-09-14T10:51:28.635Z,1016.88
2018-09-14T10:52:28.643Z,1016.89
2018-09-14T10:53:28.644Z,1016.87
2018-09-14T10:54:28.648Z,1016.82
2018-09-14T10:55:28.684Z,1016.83
2018-09-14T10:56:28.650Z,1016.85
2018-09-14T10:57:28.653Z,1016.85
2018-09-14T10:58:28.655Z,1016.84
2018-09-14T10:59:28.655Z,1016.84
2018-09-14T11:00:28.693Z,1016.79
2018-09-14T11:01:28.659Z,1016.82
2018-09-14T11:02:28.661Z,1016.83
2018-09-14T11:03:28.665Z,1016.79
2018-09-14T11:04:28.705Z,1016.79
2018-09-14T11:05:28.717Z,1016.75
2018-09-14T11:06:28.713Z,1016.75
2018-09-14T11:07:28.669Z,1016.76
2018-09-14T11:08:28.675Z,1016.75
2018-09-14T11:09:28.677Z,1016.74
2018-09-14T11:10:28.682Z,1016.74
2018-09-14T11:11:28.676Z,1016.72
2018-09-14T11:12:28.716Z,1016.72
2018-09-14T11:13:28.685Z,1016.71
2018-09-14T11:14:28.684Z,1016.73
2018-09-14T11:15:28.685Z,1016.77
2018-09-14T11:16:28.689Z,1016.74
2018-09-14T11:17:28.689Z,1016.74
2018-09-14T11:18:28.962Z,1016.70
2018-09-14T11:19:28.694Z,1016.71
2018-09-14T11:20:28.835Z,1016.72
2018-09-14T11:21:28.699Z,1016.72
2018-09-14T11:22:28.701Z,1016.69
2018-09-14T11:23:28.702Z,1016.68
2018-09-14T11:24:28.734Z,1016.70
2018-09-14T11:25:28.792Z,1016.68
2018-09-14T11:26:28.916Z,1016.68
2018-09-14T11:27:28.711Z,1016.69
2018-09-14T11:28:28.713Z,1016.71
2018-09-14T11:29:28.752Z,1016.68
2018-09-14T11:30:28.717Z,1016.69
2018-09-14T11:31:28.726Z,1016.66
2018-09-14T11:32:28.760Z,1016.67
2018-09-14T11:33:28.728Z,1016.65
2018-09-14T11:34:28.732Z,1016.68
2018-09-14T11:35:28.726Z,1016.70
2018-09-14T11:36:28.728Z,1016.66
2018-09-14T11:37:28.780Z,1016.65
2018-09-14T11:38:28.798Z,1016.65
2018-09-14T11:39:28.734Z,1016.64
2018-09-14T11:40:28.739Z,1016.60
2018-09-14T11:41:28.739Z,1016.59
2018-09-14T11:42:28.741Z,1016.58
2018-09-14T11:43:28.744Z,1016.58
2018-09-14T11:44:28.760Z,1016.62
2018-09-14T11:45:28.747Z,1016.58
2018-09-14T11:46:28.751Z,1016.59
2018-09-14T11:47:28.753Z,1016.60
2018-09-14T11:48:28.754Z,1016.60
2018-09-14T11:49:28.757Z,1016.56
2018-09-14T11:50:28.758Z,1016.56
2018-09-14T11:51:28.759Z,1016.53
2018-09-14T11:52:28.765Z,1016.53
2018-09-14T11:53:28.767Z,1016.54
2018-09-14T11:54:28.767Z,1016.55
2018-09-14T11:55:29.552Z,1016.52
2018-09-14T11:56:28.773Z,1016.54
2018-09-14T11:57:28.773Z,1016.50
2018-09-14T11:58:28.777Z,1016.48
2018-09-14T11:59:28.777Z,1016.48
2018-09-14T12:00:28.776Z,1016.49
2018-09-14T12:01:28.877Z,1016.45
2018-09-14T12:02:28.787Z,1016.44
2018-09-14T12:03:28.786Z,1016.48
2018-09-14T12:04:28.788Z,1016.47
2018-09-14T12:05:28.792Z,1016.44